Time;durP1;ratioP1;P1;durP2;ratioP2;P2;SDS_P1;SDS_P2;PMS_P1;PMS_P2;Temp;Humidity;BMP_temperature;BMP_pressure;BME280_temperature;BME280_humidity;BME280_pressure;Samples;Min_cycle;Max_cycle;Signal;HPM_P1;HPM_P2
2023/04/23 00:02:11;;;;;;;5.03;1.90;;;13.30;99.90;;;12.96;100.00;96593.94;5041167;28;20547;-39
2023/04/23 00:04:37;;;;;;;3.45;1.80;;;13.20;99.90;;;12.94;100.00;96604.63;5041055;28;20575;-39
2023/04/23 00:07:04;;;;;;;3.15;1.80;;;13.20;99.90;;;12.97;100.00;96603.56;5044870;28;20028;-38
2023/04/23 00:09:31;;;;;;;3.92;1.80;;;13.30;99.90;;;12.98;100.00;96600.00;5048530;28;20064;-37
2023/04/23 00:11:58;;;;;;;6.05;1.80;;;13.30;99.90;;;12.96;100.00;96613.31;5040709;28;20023;-38
2023/04/23 00:14:24;;;;;;;9.10;2.25;;;13.30;99.90;;;12.99;100.00;96601.69;5044196;28;20068;-38
2023/04/23 00:16:51;;;;;;;2.95;1.92;;;13.30;99.90;;;12.99;100.00;96609.63;5044537;28;20772;-38
2023/04/23 00:19:17;;;;;;;8.15;2.80;;;13.30;99.90;;;13.01;100.00;96601.59;5048742;28;20036;-39
2023/04/23 00:21:43;;;;;;;3.65;1.75;;;13.30;99.90;;;12.99;100.00;96602.56;5043920;28;20055;-39
2023/04/23 00:24:09;;;;;;;2.83;1.80;;;13.30;99.90;;;12.96;100.00;96596.59;5049231;28;20033;-38
2023/04/23 00:26:35;;;;;;;6.10;1.70;;;13.30;99.90;;;13.03;100.00;96605.00;5050861;28;20083;-38
2023/04/23 00:29:00;;;;;;;3.67;1.60;;;13.40;99.90;;;13.05;100.00;96601.34;5045374;28;20108;-38
2023/04/23 00:31:26;;;;;;;3.38;1.60;;;13.40;99.90;;;13.05;100.00;96605.78;5040450;28;20617;-38
2023/04/23 00:33:52;;;;;;;4.00;1.77;;;13.40;99.90;;;12.96;100.00;96605.38;5025677;28;20780;-38
2023/04/23 00:36:18;;;;;;;3.67;1.75;;;13.30;99.90;;;12.92;100.00;96611.81;5041283;28;20033;-38
2023/04/23 00:38:44;;;;;;;4.57;1.95;;;13.30;99.90;;;12.85;100.00;96614.88;5042279;28;20373;-37
2023/04/23 00:41:10;;;;;;;3.85;1.63;;;13.20;99.90;;;12.74;100.00;96608.44;5049049;28;20404;-38
2023/04/23 00:43:36;;;;;;;2.80;1.90;;;13.20;99.90;;;12.77;100.00;96613.53;5044827;28;20043;-38
2023/04/23 00:46:02;;;;;;;2.75;1.80;;;13.10;99.90;;;12.72;100.00;96610.34;5044026;28;20048;-38
2023/04/23 00:48:28;;;;;;;3.65;1.60;;;13.10;99.90;;;12.71;100.00;96619.19;5033668;28;20032;-41
2023/04/23 00:51:04;;;;;;;4.35;1.60;;;13.00;99.90;;;12.66;100.00;96629.19;5044137;28;20029;-39
2023/04/23 00:53:31;;;;;;;6.47;1.80;;;13.00;99.90;;;12.65;100.00;96626.63;5039434;28;20029;-40
2023/04/23 00:55:57;;;;;;;3.78;1.55;;;13.00;99.90;;;12.59;100.00;96630.47;5035277;28;20068;-41
2023/04/23 00:58:23;;;;;;;5.63;1.88;;;12.90;99.90;;;12.53;100.00;96636.13;5041510;28;20033;-40
2023/04/23 01:00:50;;;;;;;8.82;2.22;;;12.90;99.90;;;12.43;100.00;96619.06;5035686;28;20393;-39
2023/04/23 01:03:20;;;;;;;4.50;1.98;;;12.90;99.90;;;12.43;100.00;96630.50;5038262;28;20500;-39
2023/04/23 01:05:48;;;;;;;4.60;1.88;;;12.80;99.90;;;12.45;100.00;96627.78;5031559;28;20033;-38
2023/04/23 01:08:16;;;;;;;3.90;1.75;;;12.80;99.90;;;12.38;100.00;96632.53;5043908;28;20442;-38
2023/04/23 01:10:46;;;;;;;3.97;1.55;;;12.80;99.90;;;12.26;100.00;96615.59;5042513;28;20052;-39
2023/04/23 01:13:15;;;;;;;3.78;1.85;;;12.70;99.90;;;12.35;100.00;96628.28;5048096;28;20507;-38
2023/04/23 01:15:43;;;;;;;3.50;1.92;;;12.70;99.90;;;12.35;100.00;96633.56;5040279;28;20082;-39
2023/04/23 01:18:09;;;;;;;4.05;2.00;;;12.70;99.90;;;12.30;100.00;96635.63;5046261;28;20024;-39
2023/04/23 01:20:36;;;;;;;3.72;2.10;;;12.70;99.90;;;12.25;100.00;96619.16;5041549;28;20323;-38
2023/04/23 01:23:03;;;;;;;3.33;1.90;;;12.70;99.90;;;12.27;100.00;96633.13;5046559;28;20025;-38
2023/04/23 01:25:29;;;;;;;4.80;2.28;;;12.60;99.90;;;12.26;100.00;96641.16;5047178;28;20033;-38
2023/04/23 01:27:56;;;;;;;3.55;1.83;;;12.60;99.90;;;12.24;100.00;96638.63;5041817;28;20109;-37
2023/04/23 01:30:25;;;;;;;3.42;2.05;;;12.60;99.90;;;12.20;100.00;96635.31;5044072;28;20037;-39
2023/04/23 01:32:54;;;;;;;3.10;1.67;;;12.60;99.90;;;12.22;100.00;96640.47;5044976;28;20024;-39
2023/04/23 01:35:19;;;;;;;3.22;1.95;;;12.60;99.90;;;12.21;100.00;96646.72;5047254;28;20400;-38
2023/04/23 01:37:47;;;;;;;3.35;1.90;;;12.50;99.90;;;12.19;100.00;96644.16;5042706;28;20819;-38
2023/04/23 01:40:12;;;;;;;3.30;1.88;;;12.50;99.90;;;12.17;100.00;96646.03;5044158;28;20496;-39
2023/04/23 01:42:39;;;;;;;5.50;2.03;;;12.50;99.90;;;12.16;100.00;96651.41;5042591;28;20032;-38
2023/04/23 01:45:06;;;;;;;4.95;1.92;;;12.50;99.90;;;12.07;100.00;96647.47;5044177;28;20556;-38
2023/04/23 01:47:34;;;;;;;3.85;2.00;;;12.50;99.90;;;12.06;100.00;96650.19;5044407;28;20532;-38
2023/04/23 01:49:59;;;;;;;2.65;1.70;;;12.40;99.90;;;12.07;100.00;96646.63;5039275;28;20039;-38
2023/04/23 01:52:25;;;;;;;4.80;1.70;;;12.40;99.90;;;12.05;100.00;96638.78;5047592;28;20037;-39
2023/04/23 01:54:51;;;;;;;2.55;1.67;;;12.40;99.90;;;12.02;100.00;96647.75;5043232;28;20044;-38
2023/04/23 01:57:23;;;;;;;8.68;2.13;;;12.40;99.90;;;11.97;100.00;96643.63;5046223;28;20035;-38
2023/04/23 02:00:23;;;;;;;2.40;1.70;;;12.40;99.90;;;11.98;100.00;96648.81;5045845;28;20024;-38
2023/04/23 02:02:52;;;;;;;5.68;1.73;;;12.30;99.90;;;11.97;100.00;96655.06;5040934;28;20064;-38
2023/04/23 02:05:19;;;;;;;4.22;1.60;;;12.30;99.90;;;11.97;100.00;96651.53;5045765;28;20221;-38
2023/04/23 02:07:48;;;;;;;3.00;1.70;;;12.30;99.90;;;11.95;100.00;96651.66;5041348;28;20033;-38
2023/04/23 02:10:14;;;;;;;2.33;1.35;;;12.30;99.90;;;11.95;100.00;96648.13;5043124;28;20037;-38
2023/04/23 02:12:40;;;;;;;2.45;1.60;;;12.30;99.90;;;11.90;100.00;96653.69;5044274;28;20028;-38
2023/04/23 02:15:08;;;;;;;2.60;1.60;;;12.30;99.90;;;11.81;100.00;96646.22;5041354;28;20032;-38
2023/04/23 02:17:34;;;;;;;2.13;1.55;;;12.30;99.90;;;11.88;100.00;96675.78;5045178;28;20036;-38
2023/04/23 02:20:01;;;;;;;2.30;1.63;;;12.30;99.90;;;11.87;100.00;96668.81;5043408;28;20032;-38
2023/04/23 02:22:27;;;;;;;2.17;1.48;;;12.30;99.90;;;11.86;100.00;96670.59;5043529;28;20035;-38
2023/04/23 02:24:54;;;;;;;2.17;1.77;;;12.20;99.90;;;11.81;100.00;96667.38;5043560;28;20033;-38
2023/04/23 02:27:20;;;;;;;2.92;1.73;;;12.20;99.90;;;11.82;100.00;96682.25;5043266;28;20075;-38
2023/04/23 02:29:47;;;;;;;2.30;1.67;;;12.20;99.90;;;11.79;100.00;96667.44;5039496;28;20404;-39
2023/04/23 02:32:13;;;;;;;2.20;1.70;;;12.20;99.90;;;11.74;100.00;96674.75;5045133;28;20033;-38
2023/04/23 02:34:39;;;;;;;5.18;1.85;;;12.10;99.90;;;11.70;100.00;96670.56;5042196;28;20512;-37
2023/04/23 02:37:05;;;;;;;5.15;1.58;;;12.10;99.90;;;11.61;100.00;96658.72;5041468;28;20427;-39
2023/04/23 02:39:31;;;;;;;3.05;1.80;;;12.00;99.90;;;11.62;100.00;96663.03;5041212;28;20060;-39
2023/04/23 02:41:57;;;;;;;2.42;1.85;;;12.00;99.90;;;11.55;100.00;96668.72;5040587;28;20124;-40
2023/04/23 02:44:24;;;;;;;3.65;1.83;;;11.90;99.90;;;11.48;100.00;96649.72;5043762;28;20037;-38
2023/04/23 02:46:50;;;;;;;2.35;1.60;;;11.80;99.90;;;11.43;100.00;96662.28;5040714;28;20166;-38
2023/04/23 02:49:18;;;;;;;2.13;1.42;;;11.80;99.90;;;11.37;100.00;96658.19;5044628;28;20044;-38
2023/04/23 02:51:45;;;;;;;1.92;1.40;;;11.70;99.90;;;11.30;100.00;96651.53;5042679;28;20439;-38
2023/04/23 02:54:11;;;;;;;2.10;1.50;;;11.70;99.90;;;11.24;100.00;96643.94;5044105;28;20476;-38
2023/04/23 02:56:37;;;;;;;2.53;1.75;;;11.60;99.90;;;11.18;100.00;96653.03;5029955;28;20041;-39
2023/04/23 02:59:02;;;;;;;1.70;1.52;;;11.60;99.90;;;11.13;100.00;96662.97;5035335;28;20493;-38
2023/04/23 03:01:28;;;;;;;2.72;1.63;;;11.50;99.90;;;11.06;100.00;96669.47;5035924;28;20056;-38
2023/04/23 03:03:54;;;;;;;2.38;1.65;;;11.40;99.90;;;11.02;100.00;96668.78;5040592;28;20432;-38
2023/04/23 03:06:20;;;;;;;1.52;1.40;;;11.40;99.90;;;10.99;100.00;96666.28;5043618;28;20484;-38
2023/04/23 03:08:46;;;;;;;1.80;1.52;;;11.30;99.90;;;10.95;100.00;96667.38;5043446;28;20048;-38
2023/04/23 03:11:11;;;;;;;3.22;1.80;;;11.30;99.90;;;10.94;100.00;96668.28;5041920;28;20110;-37
2023/04/23 03:13:37;;;;;;;3.08;1.42;;;11.30;99.90;;;10.95;100.00;96663.91;5040979;28;20060;-38
2023/04/23 03:16:03;;;;;;;2.13;1.73;;;11.30;99.90;;;10.93;100.00;96665.72;5038405;28;20029;-39
2023/04/23 03:18:29;;;;;;;3.47;1.58;;;11.30;99.90;;;10.92;100.00;96667.53;5041541;28;20048;-38
2023/04/23 03:20:55;;;;;;;3.40;1.70;;;11.30;99.90;;;10.91;100.00;96665.84;5040799;28;20876;-38
2023/04/23 03:23:21;;;;;;;1.77;1.45;;;11.20;99.90;;;10.85;100.00;96656.41;5040993;28;20029;-38
2023/04/23 03:25:46;;;;;;;1.92;1.40;;;11.20;99.90;;;10.82;100.00;96655.72;5038759;28;20514;-38
2023/04/23 03:28:13;;;;;;;2.65;1.40;;;11.20;99.90;;;10.79;100.00;96650.63;5039587;28;20036;-39
2023/04/23 03:30:39;;;;;;;1.95;1.45;;;11.20;99.90;;;10.78;100.00;96651.53;5039018;28;20477;-38
2023/04/23 03:33:05;;;;;;;2.40;1.35;;;11.20;99.90;;;10.75;100.00;96646.41;5037333;28;20025;-38
2023/04/23 03:35:30;;;;;;;1.45;1.30;;;11.10;99.90;;;10.74;100.00;96653.47;5042686;28;20029;-38
2023/04/23 03:37:56;;;;;;;2.00;1.48;;;11.10;99.90;;;10.70;100.00;96647.50;5039751;28;20063;-37
2023/04/23 03:40:22;;;;;;;2.15;1.40;;;11.10;99.90;;;10.60;100.00;96638.31;5033000;28;20028;-38
2023/04/23 03:42:47;;;;;;;1.90;1.35;;;11.10;99.90;;;10.64;100.00;96650.44;5038437;28;20423;-38
2023/04/23 03:45:15;;;;;;;2.45;1.42;;;11.00;99.90;;;10.62;100.00;96643.53;5039371;28;20028;-37
2023/04/23 03:47:41;;;;;;;2.72;1.23;;;11.00;99.90;;;10.63;100.00;96642.59;5035412;28;20289;-38
2023/04/23 03:50:08;;;;;;;2.60;1.33;;;11.00;99.90;;;10.52;100.00;96631.75;5038621;28;20033;-37
2023/04/23 03:52:34;;;;;;;2.75;1.35;;;11.00;99.90;;;10.58;100.00;96648.09;5038178;28;20020;-38
2023/04/23 03:55:00;;;;;;;4.30;1.50;;;11.00;99.90;;;10.52;100.00;96637.84;5035802;28;20036;-38
2023/04/23 03:57:26;;;;;;;2.75;1.50;;;11.00;99.90;;;10.58;100.00;96652.53;5040297;28;20040;-38
2023/04/23 03:59:52;;;;;;;2.45;1.27;;;11.00;99.90;;;10.56;100.00;96662.28;5036575;28;20036;-38
2023/04/23 04:02:18;;;;;;;2.05;1.52;;;11.00;99.90;;;10.47;100.00;96653.88;5037720;28;20048;-38
2023/04/23 04:04:44;;;;;;;2.38;1.65;;;10.90;99.90;;;10.53;100.00;96673.81;5039742;28;20025;-39
2023/04/23 04:07:11;;;;;;;1.98;1.42;;;10.90;99.90;;;10.54;100.00;96672.06;5039189;28;20056;-37
2023/04/23 04:09:38;;;;;;;1.38;1.20;;;10.90;99.90;;;10.54;100.00;96670.28;5037954;28;20056;-38
2023/04/23 04:12:05;;;;;;;2.30;1.40;;;10.90;99.90;;;10.53;100.00;96671.19;5040084;28;20476;-37
2023/04/23 04:14:31;;;;;;;3.88;1.60;;;10.90;99.90;;;10.53;100.00;96667.72;5040013;28;20087;-37
2023/04/23 04:16:57;;;;;;;1.42;1.33;;;10.90;99.90;;;10.49;100.00;96664.38;5040555;28;20044;-37
2023/04/23 04:19:24;;;;;;;2.30;1.30;;;10.90;99.90;;;10.43;100.00;96664.66;5035176;28;20032;-38
2023/04/23 04:21:52;;;;;;;1.70;1.23;;;10.80;99.90;;;10.34;100.00;96668.59;5037148;28;20059;-38
2023/04/23 04:24:17;;;;;;;1.73;1.40;;;10.70;99.90;;;10.24;100.00;96667.28;5040424;28;20124;-40
2023/04/23 04:26:44;;;;;;;2.13;1.30;;;10.60;99.90;;;10.11;100.00;96662.59;5039899;28;20396;-38
2023/04/23 04:29:10;;;;;;;1.77;1.35;;;10.60;99.90;;;10.07;100.00;96673.34;5037972;28;21368;-39
2023/04/23 04:31:36;;;;;;;1.27;1.17;;;10.50;99.90;;;9.97;100.00;96666.78;5037267;28;20494;-39
2023/04/23 04:34:02;;;;;;;1.40;1.10;;;10.40;99.90;;;9.96;100.00;96671.22;5041588;28;20036;-38
2023/04/23 04:36:28;;;;;;;2.00;1.40;;;10.40;99.90;;;9.87;100.00;96666.34;5040718;28;20024;-38
2023/04/23 04:38:57;;;;;;;1.88;1.10;;;10.30;99.90;;;9.93;100.00;96677.47;5037657;28;20040;-39
2023/04/23 04:41:24;;;;;;;2.15;1.30;;;10.30;99.90;;;9.93;100.00;96672.19;5042490;28;20075;-39
2023/04/23 04:43:50;;;;;;;1.58;1.20;;;10.30;99.90;;;9.89;100.00;96670.63;5037534;28;20071;-38
2023/04/23 04:46:19;;;;;;;1.77;1.30;;;10.30;99.90;;;9.91;100.00;96676.69;5042427;28;20033;-38
2023/04/23 04:48:46;;;;;;;1.63;1.20;;;10.30;99.90;;;9.89;100.00;96669.78;5032035;28;20025;-40
2023/04/23 04:51:11;;;;;;;1.00;0.90;;;10.30;99.90;;;9.90;100.00;96663.59;5042625;28;20103;-38
2023/04/23 04:53:37;;;;;;;1.45;1.15;;;10.30;99.90;;;9.92;100.00;96672.25;5042763;28;20487;-38
2023/04/23 04:56:03;;;;;;;1.35;1.00;;;10.30;99.90;;;9.96;100.00;96668.59;5042425;28;20198;-38
2023/04/23 04:58:29;;;;;;;1.42;1.02;;;10.30;99.90;;;10.01;100.00;96678.91;5045661;28;20090;-38
2023/04/23 05:00:55;;;;;;;1.45;1.13;;;10.40;99.90;;;10.06;100.00;96684.81;5042916;28;20037;-38
2023/04/23 05:03:21;;;;;;;1.27;1.10;;;10.40;99.90;;;10.12;100.00;96669.56;5042847;28;20064;-39
2023/04/23 05:05:49;;;;;;;2.00;1.27;;;10.50;99.90;;;10.20;100.00;96671.00;5042546;28;20131;-38
2023/04/23 05:08:20;;;;;;;1.85;1.10;;;10.60;99.90;;;10.32;100.00;96673.94;5047037;28;20025;-37
2023/04/23 05:10:46;;;;;;;1.63;1.20;;;10.70;99.90;;;10.44;100.00;96664.56;5043413;28;20033;-39
2023/04/23 05:13:12;;;;;;;1.65;1.30;;;10.80;99.90;;;10.57;100.00;96679.81;5048623;28;20063;-38
2023/04/23 05:15:37;;;;;;;3.13;1.17;;;11.00;99.90;;;10.68;100.00;96677.53;5044104;28;20501;-39
2023/04/23 05:18:04;;;;;;;1.63;1.20;;;11.00;99.90;;;10.84;100.00;96673.19;5040027;28;20119;-38
2023/04/23 05:20:30;;;;;;;1.10;1.00;;;11.20;99.90;;;11.04;100.00;96672.19;5045622;28;20108;-38
2023/04/23 05:22:58;;;;;;;1.50;1.08;;;11.30;99.90;;;11.21;100.00;96662.56;5043865;28;20029;-38
2023/04/23 05:25:24;;;;;;;2.10;1.20;;;11.50;99.90;;;11.40;100.00;96667.75;5046080;28;20060;-40
2023/04/23 05:27:50;;;;;;;2.08;1.02;;;11.70;99.90;;;11.53;100.00;96658.25;5043156;28;20061;-39
2023/04/23 05:30:16;;;;;;;1.45;1.20;;;11.80;99.90;;;11.71;100.00;96666.13;5045117;28;20056;-39
2023/04/23 05:32:41;;;;;;;1.42;1.10;;;12.00;99.90;;;11.88;100.00;96674.03;5043531;28;20283;-38
2023/04/23 05:35:08;;;;;;;3.17;1.15;;;12.20;99.90;;;12.01;100.00;96680.38;5042139;28;20028;-39
2023/04/23 05:37:34;;;;;;;4.57;1.40;;;12.40;99.90;;;12.11;100.00;96671.94;5043887;28;20233;-38
2023/04/23 05:40:01;;;;;;;1.80;1.30;;;12.50;99.90;;;12.16;100.00;96675.19;5042320;28;20035;-39
2023/04/23 05:42:27;;;;;;;1.60;1.35;;;12.50;99.90;;;12.13;100.00;96663.00;5043844;28;20507;-39
2023/04/23 05:44:53;;;;;;;0.88;0.82;;;12.50;99.90;;;12.30;100.00;96675.28;5038029;28;20040;-39
2023/04/23 05:47:19;;;;;;;0.90;0.88;;;12.60;99.90;;;12.44;100.00;96679.81;5049911;28;20431;-38
2023/04/23 05:49:44;;;;;;;1.25;1.10;;;12.70;99.90;;;12.59;100.00;96672.78;5041963;28;20052;-39
2023/04/23 05:52:10;;;;;;;1.30;0.98;;;12.80;99.90;;;12.79;100.00;96675.19;5042265;28;20427;-42
2023/04/23 05:54:36;;;;;;;1.60;1.20;;;13.10;99.90;;;13.05;100.00;96679.91;5039541;28;20067;-40
2023/04/23 05:57:03;;;;;;;2.83;1.40;;;13.30;99.90;;;13.18;100.00;96684.38;5039563;28;20037;-40
2023/04/23 05:59:30;;;;;;;2.10;1.20;;;13.50;99.90;;;13.23;100.00;96678.81;5046069;28;20052;-40
2023/04/23 06:01:55;;;;;;;3.85;1.10;;;13.60;99.90;;;13.29;100.00;96672.28;5040847;28;20029;-39
2023/04/23 06:04:21;;;;;;;1.50;1.00;;;13.70;99.90;;;13.29;100.00;96669.66;5043512;28;20029;-40
2023/04/23 06:06:47;;;;;;;2.15;1.00;;;13.70;99.90;;;13.36;100.00;96677.16;5037815;28;20042;-41
2023/04/23 06:09:12;;;;;;;1.10;1.00;;;13.70;99.90;;;13.44;100.00;96682.03;5038291;28;20054;-40
2023/04/23 06:11:38;;;;;;;1.10;0.95;;;13.70;99.90;;;13.45;100.00;96682.88;5040043;28;20043;-40
2023/04/23 06:14:04;;;;;;;1.20;0.90;;;13.70;99.90;;;13.47;100.00;96680.97;5044617;28;20032;-40
2023/04/23 06:16:30;;;;;;;0.82;0.70;;;13.70;99.90;;;13.56;100.00;96681.25;5042876;28;20537;-40
2023/04/23 06:18:56;;;;;;;1.17;0.70;;;13.80;99.90;;;13.59;100.00;96677.59;5043357;28;20123;-39
2023/04/23 06:21:22;;;;;;;0.90;0.68;;;13.90;99.90;;;13.68;100.00;96689.44;5044112;28;20025;-39
2023/04/23 06:23:48;;;;;;;0.88;0.70;;;13.90;99.90;;;13.65;100.00;96692.25;5041648;28;20029;-41
2023/04/23 06:26:14;;;;;;;1.00;0.90;;;13.90;99.90;;;13.60;100.00;96681.06;5042890;28;20033;-40
2023/04/23 06:28:45;;;;;;;0.98;0.80;;;13.90;99.90;;;13.50;100.00;96697.53;5041664;28;20039;-39
2023/04/23 06:31:11;;;;;;;0.88;0.73;;;13.90;99.90;;;13.37;100.00;96680.69;5040319;28;20079;-40
2023/04/23 06:33:37;;;;;;;1.42;0.90;;;13.70;99.90;;;13.34;100.00;96692.28;5044113;28;20032;-40
2023/04/23 06:36:04;;;;;;;1.58;0.70;;;13.60;99.90;;;13.32;100.00;96682.75;5043930;28;20036;-40
2023/04/23 06:38:30;;;;;;;1.33;0.82;;;13.70;99.90;;;13.43;100.00;96680.31;5044623;28;20037;-41
2023/04/23 06:40:55;;;;;;;2.10;1.10;;;13.70;99.90;;;13.55;100.00;96679.56;5038626;28;20043;-40
2023/04/23 06:43:21;;;;;;;0.73;0.73;;;13.90;99.90;;;13.65;100.00;96674.56;5039945;28;21288;-41
2023/04/23 06:45:47;;;;;;;1.98;0.90;;;13.90;99.90;;;13.77;100.00;96670.31;5039675;28;20039;-40
2023/04/23 06:48:13;;;;;;;1.00;0.90;;;14.10;99.90;;;13.87;100.00;96666.16;5041333;28;20035;-41
2023/04/23 06:50:39;;;;;;;1.88;0.90;;;14.20;99.90;;;13.96;100.00;96666.50;5041583;28;20036;-40
2023/04/23 06:53:05;;;;;;;0.95;0.80;;;14.20;99.90;;;13.98;100.00;96646.94;5040457;28;20419;-40
2023/04/23 06:55:30;;;;;;;1.52;0.80;;;14.30;99.90;;;14.06;100.00;96659.69;5040855;28;20105;-39
2023/04/23 06:57:57;;;;;;;1.20;0.90;;;14.40;99.90;;;13.94;100.00;96662.19;5040718;28;20367;-41
2023/04/23 07:00:23;;;;;;;2.80;0.85;;;14.40;99.90;;;13.98;100.00;96660.19;5036915;28;20067;-41
2023/04/23 07:02:49;;;;;;;1.20;0.80;;;14.30;99.90;;;14.21;100.00;96649.91;5041908;28;20124;-39
2023/04/23 07:05:16;;;;;;;2.65;0.80;;;14.40;99.90;;;14.38;100.00;96652.34;5038114;28;20119;-38
2023/04/23 07:07:42;;;;;;;1.00;0.70;;;14.60;99.90;;;14.47;100.00;96650.91;5040825;28;20025;-38
2023/04/23 07:10:10;;;;;;;1.30;0.80;;;14.80;99.90;;;14.51;100.00;96650.59;5038648;28;20029;-37
2023/04/23 07:12:38;;;;;;;1.35;0.80;;;14.80;99.90;;;14.39;100.00;96647.88;5042013;28;20032;-38
2023/04/23 07:15:05;;;;;;;0.65;0.65;;;14.70;99.90;;;14.32;100.00;96644.81;5034606;28;20476;-40
2023/04/23 07:17:31;;;;;;;1.25;0.75;;;14.60;99.90;;;14.28;100.00;96644.16;5037706;28;20032;-40
2023/04/23 07:19:56;;;;;;;1.10;0.73;;;14.50;99.90;;;14.12;100.00;96651.34;5042949;28;20122;-40
2023/04/23 07:22:24;;;;;;;1.55;0.70;;;14.40;99.90;;;13.93;100.00;96649.88;5043679;28;20078;-39
2023/04/23 07:24:51;;;;;;;2.45;0.70;;;14.20;99.90;;;13.77;100.00;96650.91;5042353;28;20499;-40
2023/04/23 07:27:17;;;;;;;0.98;0.70;;;14.10;99.90;;;13.63;100.00;96649.13;5038794;28;20032;-40
2023/04/23 07:29:43;;;;;;;0.95;0.70;;;13.90;99.90;;;13.52;100.00;96653.25;5042901;28;20040;-41
2023/04/23 07:32:08;;;;;;;0.80;0.70;;;13.80;99.90;;;13.51;100.00;96654.22;5043953;28;20428;-40
2023/04/23 07:34:37;;;;;;;1.42;0.65;;;13.80;99.90;;;13.56;100.00;96644.16;5042096;28;20075;-42
2023/04/23 07:37:03;;;;;;;1.10;0.90;;;13.80;99.90;;;13.63;100.00;96649.94;5042185;28;20037;-39
2023/04/23 07:39:29;;;;;;;1.08;0.90;;;13.90;99.90;;;13.75;100.00;96645.72;5045823;28;20032;-39
2023/04/23 07:41:55;;;;;;;0.80;0.70;;;14.10;99.90;;;14.04;100.00;96646.53;5041956;28;20087;-40
2023/04/23 07:44:21;;;;;;;0.75;0.60;;;14.30;99.90;;;14.22;100.00;96641.03;5040167;28;20514;-40
2023/04/23 07:46:47;;;;;;;2.40;0.90;;;14.50;99.90;;;14.41;100.00;96638.03;5032744;28;20048;-40
2023/04/23 07:49:13;;;;;;;3.00;0.98;;;14.70;99.90;;;14.62;100.00;96639.31;5041872;28;20064;-40
2023/04/23 07:51:39;;;;;;;1.02;0.75;;;15.00;99.90;;;14.92;100.00;96640.91;5044467;28;20047;-38
2023/04/23 07:54:05;;;;;;;1.20;0.90;;;15.30;99.90;;;15.20;100.00;96637.28;5045494;28;20381;-38
2023/04/23 07:56:31;;;;;;;0.82;0.80;;;15.70;99.90;;;15.57;100.00;96639.22;5046332;28;20407;-38
2023/04/23 07:58:58;;;;;;;1.23;0.80;;;16.00;99.90;;;15.76;100.00;96636.16;5037118;28;20044;-38
2023/04/23 08:01:24;;;;;;;1.73;0.82;;;16.30;99.90;;;16.06;100.00;96637.59;5044907;28;20099;-38
2023/04/23 08:03:50;;;;;;;2.10;1.10;;;16.50;99.90;;;16.22;99.31;96641.72;5042574;28;20051;-38
2023/04/23 08:06:17;;;;;;;1.00;0.88;;;16.50;99.90;;;16.09;95.65;96635.56;5045395;28;20025;-38
2023/04/23 08:08:43;;;;;;;1.33;0.90;;;16.40;99.90;;;16.05;96.97;96639.41;5038652;28;20435;-37
2023/04/23 08:11:10;;;;;;;1.23;0.90;;;16.30;99.90;;;16.02;97.23;96632.53;5047302;28;20289;-39
2023/04/23 08:13:36;;;;;;;1.33;0.98;;;16.30;99.90;;;15.93;92.68;96624.31;5043570;28;20527;-38
2023/04/23 08:16:01;;;;;;;1.20;0.70;;;16.20;99.90;;;15.86;93.38;96625.72;5037766;28;20071;-39
2023/04/23 08:18:27;;;;;;;1.00;0.90;;;16.10;99.90;;;15.81;96.67;96618.94;5039087;28;20033;-37
2023/04/23 08:20:56;;;;;;;1.92;1.02;;;16.10;99.90;;;15.80;96.75;96617.22;5035170;28;20025;-38
2023/04/23 08:23:22;;;;;;;2.22;0.90;;;16.10;99.90;;;15.66;96.50;96617.28;5040683;28;20428;-38
2023/04/23 08:25:47;;;;;;;0.98;0.90;;;16.10;99.90;;;15.74;100.00;96612.34;5042678;28;20037;-38
2023/04/23 08:28:13;;;;;;;1.75;0.85;;;16.10;99.90;;;15.87;100.00;96617.63;5045867;28;20039;-40
2023/04/23 08:30:39;;;;;;;1.58;0.90;;;16.10;99.90;;;15.97;97.73;96628.47;5045443;28;20025;-38
2023/04/23 08:33:04;;;;;;;1.05;0.80;;;16.20;99.90;;;16.00;94.45;96621.13;5047458;28;20431;-39
2023/04/23 08:35:30;;;;;;;1.30;1.00;;;16.30;99.90;;;16.03;96.77;96612.94;5051105;28;20032;-39
2023/04/23 08:37:56;;;;;;;1.02;0.80;;;16.30;99.90;;;16.15;96.13;96619.19;5044773;28;20029;-38
2023/04/23 08:40:21;;;;;;;1.00;0.88;;;16.40;99.90;;;16.24;92.96;96615.03;5047067;28;20109;-38
2023/04/23 08:43:11;;;;;;;1.23;0.95;;;16.50;99.90;;;16.36;91.83;96608.78;5045223;28;20040;-38
2023/04/23 08:45:40;;;;;;;0.90;0.75;;;16.60;99.90;;;16.48;88.99;96614.19;5047849;28;20066;-38
2023/04/23 08:48:06;;;;;;;1.63;1.13;;;16.80;99.90;;;16.67;88.45;96617.19;5046123;28;20475;-38
2023/04/23 08:50:32;;;;;;;4.75;1.05;;;17.00;99.90;;;16.77;82.49;96606.69;5049550;28;20029;-38
2023/04/23 08:52:58;;;;;;;1.83;0.93;;;17.20;99.90;;;16.94;83.07;96609.00;5036486;28;20664;-39
2023/04/23 08:55:25;;;;;;;2.10;1.00;;;17.40;99.90;;;17.00;79.74;96613.00;5047209;28;20058;-45
2023/04/23 08:57:51;;;;;;;1.13;0.93;;;17.60;99.90;;;17.38;80.06;96608.38;5043982;28;20484;-40
2023/04/23 09:00:21;;;;;;;4.38;1.00;;;17.80;99.90;;;17.46;74.28;96606.84;5047166;28;20045;-42
2023/04/23 09:02:48;;;;;;;1.45;1.05;;;17.90;99.90;;;17.50;75.10;96600.28;5040501;28;20090;-41
2023/04/23 09:05:14;;;;;;;1.08;0.98;;;17.90;99.90;;;17.50;75.41;96592.28;5044089;28;20127;-41
2023/04/23 09:07:41;;;;;;;2.53;1.08;;;17.90;99.90;;;17.47;76.78;96599.69;5043136;28;20507;-41
2023/04/23 09:10:10;;;;;;;1.80;1.10;;;17.90;99.90;;;17.46;68.86;96595.31;5047898;28;20476;-40
2023/04/23 09:12:37;;;;;;;1.55;1.08;;;17.90;99.90;;;17.46;65.18;96603.28;5047822;28;20029;-41
2023/04/23 09:15:11;;;;;;;2.70;1.30;;;17.90;99.90;;;17.39;69.85;96592.28;5047038;28;20037;-41
2023/04/23 09:17:45;;;;;;;3.13;1.13;;;17.80;99.90;;;17.39;64.63;96589.63;5048502;28;20029;-40
2023/04/23 09:20:13;;;;;;;2.25;0.80;;;17.80;99.90;;;17.47;60.67;96594.34;5042098;28;20795;-38
2023/04/23 09:22:44;;;;;;;1.50;0.98;;;17.90;99.90;;;17.58;59.41;96574.84;5046467;28;20060;-38
2023/04/23 09:25:12;;;;;;;1.30;1.00;;;18.00;99.90;;;17.99;66.10;96578.75;5042364;28;20082;-38
2023/04/23 09:27:39;;;;;;;1.73;0.82;;;18.30;99.90;;;18.17;58.30;96574.59;5043043;28;20037;-39
2023/04/23 09:30:08;;;;;;;1.08;0.82;;;18.60;99.90;;;18.34;60.48;96564.38;5043301;28;20555;-37
2023/04/23 09:32:34;;;;;;;3.08;0.90;;;18.70;99.90;;;18.44;55.86;96558.16;5049869;28;20384;-39
2023/04/23 09:35:06;;;;;;;2.25;0.80;;;18.90;99.90;;;18.62;56.49;96552.28;5043916;28;20036;-41
2023/04/23 09:37:32;;;;;;;2.13;0.90;;;19.00;99.90;;;18.79;56.26;96554.41;5047071;28;20384;-41
2023/04/23 09:40:04;;;;;;;1.40;0.80;;;19.10;99.90;;;18.86;56.06;96558.28;5046068;28;20044;-41
2023/04/23 09:42:31;;;;;;;0.87;0.70;;;19.20;99.90;;;18.83;55.04;96555.88;5046284;28;20029;-40
2023/04/23 09:45:06;;;;;;;0.90;0.75;;;19.20;99.90;;;18.58;51.10;96554.34;5044061;28;20036;-41
2023/04/23 09:47:38;;;;;;;0.82;0.65;;;19.10;99.90;;;18.19;50.49;96550.47;5048166;28;20375;-42
2023/04/23 09:50:06;;;;;;;1.20;0.90;;;18.80;99.70;;;17.86;52.87;96547.72;5046763;28;21287;-40
2023/04/23 09:52:38;;;;;;;1.83;0.90;;;18.50;99.80;;;17.68;51.70;96539.34;5041797;28;20040;-40
2023/04/23 09:55:04;;;;;;;;;;;18.20;99.90;;;17.80;58.00;96545.53;5041284;28;20385;-40
2023/04/23 09:57:36;;;;;;;1.75;0.90;;;18.20;99.90;;;17.92;54.94;96544.56;5043031;28;19963;-41
2023/04/23 10:00:21;;;;;;;1.33;0.82;;;18.30;99.90;;;18.16;56.63;96543.56;5036797;28;20040;-40
2023/04/23 10:02:49;;;;;;;1.33;0.90;;;18.50;99.90;;;18.38;54.89;96531.16;5037807;28;20036;-40
2023/04/23 10:05:18;;;;;;;1.17;0.80;;;18.70;99.90;;;18.50;53.36;96536.31;5044018;28;20029;-42
2023/04/23 10:07:47;;;;;;;2.17;1.02;;;19.00;99.90;;;18.72;50.67;96528.31;5041508;28;20029;-42
2023/04/23 10:10:17;;;;;;;0.55;0.50;;;19.10;99.10;;;18.80;52.75;96526.69;5038331;28;20032;-40
2023/04/23 10:12:44;;;;;;;1.63;0.80;;;19.20;99.60;;;18.95;49.55;96516.59;5044651;28;20051;-42
2023/04/23 10:15:11;;;;;;;0.95;0.73;;;19.40;98.60;;;19.06;48.28;96507.66;5040865;28;20025;-42